TimeCST,TemperatureF,Dew PointF,Humidity,Sea Level PressureIn,VisibilityMPH,Wind Direction,Wind SpeedMPH,Gust SpeedMPH,PrecipitationIn,Events,Conditions,WindDirDegrees,DateUTC
12:13 AM,1.4,-9.4,61,30.24,10.0,WNW,15.0,20.7,N/A,,Clear,300,2013-01-21 06:13:00
12:34 AM,1.4,-11.2,56,30.23,10.0,WNW,13.8,-,N/A,,Clear,300,2013-01-21 06:34:00
12:54 AM,-0.4,-9.4,66,30.23,5.0,WNW,16.1,-,N/A,,Haze,300,2013-01-21 06:54:00
1:14 AM,-0.4,-9.4,66,30.24,3.0,WNW,16.1,-,N/A,,Haze,290,2013-01-21 07:14:00
1:34 AM,-0.4,-11.2,60,30.24,5.0,WNW,15.0,21.9,N/A,,Haze,290,2013-01-21 07:34:00
1:54 AM,-0.4,-13.0,55,30.25,10.0,WNW,16.1,21.9,N/A,,Clear,290,2013-01-21 07:54:00
2:13 AM,-0.4,-13.0,55,30.26,7.0,WNW,15.0,-,N/A,,Clear,290,2013-01-21 08:13:00
2:34 AM,-0.4,-13.0,55,30.26,10.0,West,15.0,21.9,N/A,,Clear,280,2013-01-21 08:34:00
3:14 AM,-2.2,-14.8,55,30.26,10.0,WNW,19.6,25.3,N/A,,Scattered Clouds,300,2013-01-21 09:14:00
3:34 AM,-2.2,-16.6,50,30.26,10.0,WNW,16.1,-,N/A,,Clear,290,2013-01-21 09:34:00
3:54 AM,-2.2,-16.6,50,30.25,10.0,West,18.4,-,N/A,,Clear,280,2013-01-21 09:54:00
4:14 AM,-4.0,-16.6,55,30.26,10.0,WNW,20.7,26.5,N/A,,Clear,290,2013-01-21 10:14:00
4:33 AM,-5.8,-18.4,55,30.26,10.0,WNW,19.6,24.2,N/A,,Clear,290,2013-01-21 10:33:00
4:54 AM,-5.8,-18.4,55,30.26,10.0,WNW,19.6,24.2,N/A,,Clear,290,2013-01-21 10:54:00
5:14 AM,-5.8,-18.4,55,30.26,10.0,WNW,20.7,27.6,N/A,,Clear,290,2013-01-21 11:14:00
6:14 AM,-7.6,-20.2,54,30.27,10.0,WNW,20.7,25.3,N/A,,Clear,290,2013-01-21 12:14:00
6:34 AM,-7.6,-20.2,54,30.27,10.0,WNW,20.7,25.3,N/A,,Clear,300,2013-01-21 12:34:00
6:54 AM,-7.6,-20.2,54,30.27,10.0,WNW,20.7,26.5,N/A,,Clear,300,2013-01-21 12:54:00
7:14 AM,-7.6,-20.2,54,30.27,10.0,WNW,19.6,25.3,N/A,,Clear,290,2013-01-21 13:14:00
7:34 AM,-7.6,-20.2,54,30.27,10.0,WNW,15.0,-,N/A,,Clear,290,2013-01-21 13:34:00
7:54 AM,-7.6,-20.2,54,30.28,10.0,WNW,19.6,-,N/A,,Clear,300,2013-01-21 13:54:00
8:14 AM,-7.6,-20.2,54,30.28,10.0,WNW,17.3,23.0,N/A,,Clear,290,2013-01-21 14:14:00
8:34 AM,-7.6,-18.4,59,30.28,10.0,WNW,12.7,20.7,N/A,,Clear,290,2013-01-21 14:34:00
8:54 AM,-7.6,-18.4,59,30.29,10.0,WNW,17.3,21.9,N/A,,Clear,290,2013-01-21 14:54:00
9:14 AM,-5.8,-18.4,55,30.29,10.0,WNW,18.4,23.0,N/A,,Clear,290,2013-01-21 15:14:00
9:34 AM,-5.8,-18.4,55,30.30,10.0,WNW,19.6,25.3,N/A,,Clear,290,2013-01-21 15:34:00
9:54 AM,-5.8,-18.4,55,30.30,10.0,WNW,21.9,-,N/A,,Clear,300,2013-01-21 15:54:00
10:14 AM,-4.0,-18.4,50,30.30,10.0,NW,19.6,26.5,N/A,,Clear,310,2013-01-21 16:14:00
10:34 AM,-2.2,-16.6,50,30.30,10.0,WNW,20.7,26.5,N/A,,Clear,300,2013-01-21 16:34:00
10:54 AM,-2.2,-18.4,46,30.31,10.0,WNW,20.7,27.6,N/A,,Clear,300,2013-01-21 16:54:00
11:14 AM,-2.2,-16.6,50,30.30,7.0,WNW,17.3,25.3,N/A,,Clear,290,2013-01-21 17:14:00
11:34 AM,-2.2,-16.6,50,30.29,7.0,WNW,18.4,23.0,N/A,,Clear,290,2013-01-21 17:34:00
11:54 AM,-2.2,-16.6,50,30.28,7.0,WNW,17.3,26.5,N/A,,Clear,290,2013-01-21 17:54:00
12:14 PM,-0.4,-16.6,46,30.27,7.0,WNW,20.7,-,N/A,,Clear,290,2013-01-21 18:14:00
12:34 PM,-0.4,-16.6,46,30.26,7.0,WNW,17.3,23.0,N/A,,Clear,290,2013-01-21 18:34:00
12:54 PM,-0.4,-16.6,46,30.26,7.0,West,20.7,25.3,N/A,,Clear,280,2013-01-21 18:54:00
1:14 PM,-0.4,-16.6,46,30.25,7.0,West,20.7,-,N/A,,Clear,280,2013-01-21 19:14:00
1:34 PM,-0.4,-16.6,46,30.25,7.0,WNW,21.9,25.3,N/A,,Clear,300,2013-01-21 19:34:00
1:54 PM,-0.4,-16.6,46,30.24,7.0,West,17.3,-,N/A,,Clear,280,2013-01-21 19:54:00
2:14 PM,1.4,-14.8,47,30.24,7.0,West,17.3,24.2,N/A,,Clear,280,2013-01-21 20:14:00
2:34 PM,1.4,-14.8,47,30.24,10.0,West,20.7,24.2,N/A,,Clear,280,2013-01-21 20:34:00
2:54 PM,1.4,-14.8,47,30.24,10.0,WNW,18.4,23.0,N/A,,Clear,300,2013-01-21 20:54:00
3:14 PM,-0.4,-14.8,51,30.24,10.0,West,19.6,-,N/A,,Clear,280,2013-01-21 21:14:00
3:34 PM,1.4,-14.8,47,30.24,10.0,West,18.4,-,N/A,,Clear,280,2013-01-21 21:34:00
3:54 PM,-0.4,-14.8,51,30.24,7.0,West,19.6,-,N/A,,Clear,280,2013-01-21 21:54:00
4:14 PM,-0.4,-14.8,51,30.24,10.0,WNW,17.3,24.2,N/A,,Clear,290,2013-01-21 22:14:00
4:54 PM,-0.4,-14.8,51,30.24,10.0,West,16.1,-,N/A,,Clear,280,2013-01-21 22:54:00
5:14 PM,-0.4,-14.8,51,30.24,10.0,WNW,12.7,16.1,N/A,,Clear,290,2013-01-21 23:14:00
5:34 PM,-0.4,-14.8,51,30.24,10.0,WNW,12.7,-,N/A,,Clear,290,2013-01-21 23:34:00
5:54 PM,-0.4,-14.8,51,30.25,10.0,West,15.0,-,N/A,,Clear,280,2013-01-21 23:54:00
6:14 PM,-0.4,-14.8,51,30.25,10.0,WNW,15.0,18.4,N/A,,Clear,290,2013-01-22 00:14:00
6:34 PM,-2.2,-14.8,55,30.26,10.0,WNW,12.7,-,N/A,,Clear,290,2013-01-22 00:34:00
6:54 PM,-2.2,-14.8,55,30.26,10.0,WNW,11.5,-,N/A,,Clear,290,2013-01-22 00:54:00
7:14 PM,-2.2,-14.8,55,30.26,10.0,WNW,10.4,-,N/A,,Clear,300,2013-01-22 01:14:00
7:34 PM,-2.2,-14.8,55,30.26,10.0,WNW,9.2,-,N/A,,Clear,290,2013-01-22 01:34:00
7:54 PM,-2.2,-14.8,55,30.26,10.0,West,9.2,-,N/A,,Clear,280,2013-01-22 01:54:00
8:14 PM,-2.2,-13.0,60,30.26,10.0,West,8.1,-,N/A,,Clear,270,2013-01-22 02:14:00
8:34 PM,-2.2,-13.0,60,30.26,10.0,West,6.9,-,N/A,,Clear,270,2013-01-22 02:34:00
8:54 PM,-2.2,-13.0,60,30.26,10.0,West,5.8,-,N/A,,Clear,270,2013-01-22 02:54:00
9:14 PM,-4.0,-14.8,60,30.26,10.0,West,4.6,-,N/A,,Clear,270,2013-01-22 03:14:00
9:34 PM,-4.0,-14.8,60,30.26,10.0,West,4.6,-,N/A,,Clear,280,2013-01-22 03:34:00
9:54 PM,-4.0,-14.8,60,30.26,10.0,West,4.6,-,N/A,,Clear,270,2013-01-22 03:54:00
10:14 PM,-5.8,-14.8,65,30.25,10.0,West,3.5,-,N/A,,Clear,260,2013-01-22 04:14:00
10:34 PM,-5.8,-14.8,65,30.25,10.0,Calm,Calm,-,N/A,,Clear,0,2013-01-22 04:34:00
10:54 PM,-4.0,-14.8,60,30.26,10.0,WSW,3.5,-,N/A,,Clear,250,2013-01-22 04:54:00
11:14 PM,-5.8,-14.8,65,30.26,10.0,West,4.6,-,N/A,,Clear,260,2013-01-22 05:14:00
11:34 PM,-4.0,-14.8,60,30.26,10.0,WSW,4.6,-,N/A,,Clear,250,2013-01-22 05:34:00
11:54 PM,-4.0,-13.0,65,30.25,10.0,WSW,5.8,-,N/A,,Clear,240,2013-01-22 05:54:00